Hawaiian Chieftain — WDC8751 — position and weather

sailwx.info

Track history (hours):
 
Tides and Currents Weather Stations Pressure Air Temp Water Temp Dewpoint Dewpoint Depression Visibility Wind Speed Wind Dir Waves Ship Positions

Hawaiian Chieftain (United States)

Operated briefly as "Spirt of Larinda". When she sailed from Sausalito, California, callsign was WAA7737.

Ship's website: http://www.historicalseaport.org/HawaiianChieftain.htm

Owner: GRAYS HARBOR HISTORICAL SEAPORT AUTHORITY, ABERDEEN, WA. More information available from US FCC via Universal Licensing System and Coast Guard Vessel Documentation Center.

Last reported at 2017-Apr-26 05:43 UTC. Time now 2017-May-23 04:56 UTC.
Position N 38°25' W 123°18'.
Warning: this ship's position is 26 days out of date.

Length 31 m.

Type: Sailing vessel. MMSI: 367092520.

Date/timePositionNaut miles runAvg speedWind from/ knotsBaromVisibWave heightAir tempDewpointWater temp
2017-Apr-26 05:43N 38°25' W 123°18'1 6.9
2017-Apr-26 05:30N 38°24' W 123°16'4 7.0
2017-Apr-26 05:00N 38°21' W 123°15'3 6.8
2017-Apr-26 04:30N 38°18' W 123°13'3 6.4
2017-Apr-26 04:00N 38°15' W 123°12'4 7.0
2017-Apr-26 03:27N 38°11' W 123°10'12 6.4
2017-Apr-26 01:34N 37°59' W 123°06'1 7.1
2017-Apr-26 01:27N 37°59' W 123°05'3 6.6
2017-Apr-26 00:56N 37°56' W 123°03'27 6.7
2017-Apr-25 20:56N 37°49' W 122°30'5 8.8
2017-Apr-25 20:22N 37°50' W 122°24'3 8.8
2017-Apr-25 20:00N 37°48' W 122°21'3 0.2
2017-Apr-25 02:26N 37°48' W 122°17'0 0.0
2017-Apr-25 01:52N 37°48' W 122°17'0 0.0
2017-Apr-25 00:37N 37°48' W 122°17'0 0.0
2017-Apr-24 20:01N 37°48' W 122°17'0 0.0
2017-Apr-24 19:50N 37°48' W 122°17'0 0.0
2017-Apr-24 19:28N 37°48' W 122°17'0 0.2
2017-Apr-24 19:00N 37°48' W 122°17'0 0.1
2017-Apr-24 18:18N 37°48' W 122°17'0 0.0
2017-Apr-24 18:00N 37°48' W 122°17'0 0.1
2017-Apr-24 17:30N 37°48' W 122°17'0 0.1
2017-Apr-24 17:00N 37°47' W 122°17'0 0.0
2017-Apr-24 06:45N 37°48' W 122°17'0 0.0
2017-Apr-24 06:21N 37°48' W 122°17'0 0.0
2017-Apr-24 00:27N 37°48' W 122°17'0 0.0
2017-Apr-23 23:55N 37°48' W 122°17'0 0.2
2017-Apr-23 23:30N 37°48' W 122°17'0 0.5
2017-Apr-23 23:00N 37°48' W 122°17'4 7.9
2017-Apr-23 22:30N 37°48' W 122°22'3 5.0
2017-Apr-23 21:57N 37°49' W 122°25'2 4.1
2017-Apr-23 21:30N 37°48' W 122°23'3 6.3
2017-Apr-23 21:00N 37°48' W 122°19'2 1.6
2017-Apr-23 19:45N 37°48' W 122°17'1 5.5
2017-Apr-23 19:30N 37°48' W 122°18'4 7.7
2017-Apr-23 18:58N 37°49' W 122°23'3 6.5
2017-Apr-23 18:29N 37°50' W 122°27'1 2.4
2017-Apr-23 17:59N 37°51' W 122°28'2 3.6
2017-Apr-23 17:25N 37°50' W 122°26'3 6.7
2017-Apr-23 17:00N 37°49' W 122°23'3 6.6
2017-Apr-23 16:30N 37°48' W 122°19'2 3.2
2017-Apr-23 16:00N 37°48' W 122°17'0 0.0
2017-Apr-23 14:59N 37°48' W 122°17'0 0.0
2017-Apr-23 14:22N 37°48' W 122°17'0 0.0
2017-Apr-23 13:10N 37°48' W 122°17'0 0.0
2017-Apr-23 12:58N 37°48' W 122°17'0 0.0
2017-Apr-23 12:30N 37°48' W 122°17'0 0.0
2017-Apr-23 11:56N 37°48' W 122°17'0 0.0
2017-Apr-23 10:57N 37°48' W 122°17'0 0.0
2017-Apr-23 08:45N 37°48' W 122°17'0 0.0
2017-Apr-23 08:20N 37°48' W 122°17'0 0.0
2017-Apr-23 07:47N 37°48' W 122°17'0 0.0
2017-Apr-23 07:22N 37°48' W 122°17'0 0.0
2017-Apr-23 06:52N 37°48' W 122°17'0 0.0
2017-Apr-23 06:15N 37°48' W 122°17'0 0.0
2017-Apr-23 05:49N 37°48' W 122°17'0 0.1
2017-Apr-23 04:50N 37°48' W 122°17'0 0.1
2017-Apr-23 04:24N 37°48' W 122°17'0 0.0
2017-Apr-23 03:28N 37°48' W 122°17'0 0.0
2017-Apr-23 02:57N 37°48' W 122°17'0 0.0
2017-Apr-23 02:28N 37°48' W 122°17'0 0.0
2017-Apr-23 01:48N 37°48' W 122°17'0 0.0
2017-Apr-23 00:59N 37°48' W 122°17'0 0.0
2017-Apr-23 00:26N 37°48' W 122°17'0 0.0
2017-Apr-22 23:56N 37°48' W 122°17'2 4.9
2017-Apr-22 23:28N 37°48' W 122°20'1 1.1
2017-Apr-22 22:46N 37°48' W 122°21'0 0.7
2017-Apr-22 22:29N 37°48' W 122°21'0 0.7
2017-Apr-22 21:58N 37°48' W 122°21'2 4.1
2017-Apr-22 21:30N 37°48' W 122°18'1 1.7
2017-Apr-22 20:39N 37°48' W 122°17'0 0.0
2017-Apr-22 20:15N 37°48' W 122°17'0 0.0
2017-Apr-22 19:28N 37°48' W 122°17'0 0.0
2017-Apr-22 18:54N 37°48' W 122°17'0 0.0
2017-Apr-22 18:30N 37°48' W 122°17'0 0.0
2017-Apr-22 17:58N 37°48' W 122°17'0 0.0
2017-Apr-22 17:28N 37°48' W 122°17'0 0.0
2017-Apr-22 16:55N 37°48' W 122°17'0 0.0
2017-Apr-22 16:24N 37°48' W 122°17'0 0.0
2017-Apr-22 16:00N 37°48' W 122°17'0 0.0
2017-Apr-22 15:27N 37°48' W 122°17'0 0.0
2017-Apr-22 14:58N 37°48' W 122°17'0 0.0
2017-Apr-22 14:30N 37°48' W 122°17'0 0.0
2017-Apr-22 13:30N 37°48' W 122°17'0 0.0
2017-Apr-22 13:00N 37°48' W 122°17'0 0.0
2017-Apr-22 12:29N 37°48' W 122°17'0 0.0
2017-Apr-22 11:51N 37°48' W 122°17'0 0.0
2017-Apr-22 11:27N 37°48' W 122°17'0 0.0
2017-Apr-22 11:00N 37°48' W 122°17'0 0.0
2017-Apr-22 10:28N 37°48' W 122°17'0 0.0
2017-Apr-22 09:57N 37°48' W 122°17'0 0.0
2017-Apr-22 08:50N 37°48' W 122°17'0 0.0
2017-Apr-22 08:26N 37°48' W 122°17'0 0.0
2017-Apr-22 07:52N 37°48' W 122°17'0 0.0
2017-Apr-22 07:03N 37°48' W 122°17'0 0.1
2017-Apr-22 06:59N 37°48' W 122°17'0 0.0
2017-Apr-22 06:29N 37°48' W 122°17'0 0.0
2017-Apr-22 06:00N 37°48' W 122°17'0 0.0
2017-Apr-22 05:30N 37°48' W 122°17'0 0.0
2017-Apr-22 04:57N 37°48' W 122°17'0 0.0
2017-Apr-22 04:17N 37°48' W 122°17'0 0.0
2017-Apr-22 03:55N 37°48' W 122°17'0 0.0
2017-Apr-22 03:25N 37°48' W 122°17'0 0.0
2017-Apr-22 02:55N 37°48' W 122°17'0 0.0
2017-Apr-22 01:21N 37°48' W 122°17'0 0.0
2017-Apr-22 00:57N 37°48' W 122°17'0 0.0
2017-Apr-22 00:27N 37°48' W 122°17'0 0.0
2017-Apr-21 23:51N 37°48' W 122°17'2 5.3
2017-Apr-21 23:30N 37°48' W 122°19'3 4.0
2017-Apr-21 22:40N 37°47' W 122°23'0 0.2
2017-Apr-21 22:23N 37°47' W 122°23'1 3.0
2017-Apr-21 22:01N 37°48' W 122°22'1 1.4
2017-Apr-21 21:29N 37°47' W 122°21'1 1.3
2017-Apr-21 21:01N 37°48' W 122°21'1 1.6
2017-Apr-21 20:31N 37°48' W 122°22'1 0.8
2017-Apr-21 18:53N 37°47' W 122°23'0 0.9
2017-Apr-21 18:29N 37°47' W 122°23'0 0.9
2017-Apr-21 18:01N 37°47' W 122°22'1 1.1
2017-Apr-21 17:30N 37°47' W 122°22'1 1.1
2017-Apr-21 16:55N 37°47' W 122°22'1 1.5
2017-Apr-21 16:30N 37°47' W 122°23'0 0.1
2017-Apr-21 16:01N 37°47' W 122°23'0 0.1
2017-Apr-21 15:28N 37°47' W 122°23'3 6.0
2017-Apr-21 15:00N 37°48' W 122°20'2 4.2
2017-Apr-21 14:25N 37°48' W 122°17'0 0.0
2017-Apr-21 13:28N 37°48' W 122°17'0 0.0
2017-Apr-21 12:51N 37°48' W 122°17'0 0.0
2017-Apr-21 12:14N 37°48' W 122°17'0 0.0
2017-Apr-21 11:58N 37°48' W 122°17'0 0.0
2017-Apr-21 11:30N 37°48' W 122°17'0 0.0
2017-Apr-21 10:47N 37°48' W 122°17'0 0.0
2017-Apr-21 10:25N 37°48' W 122°17'0 0.0
2017-Apr-21 08:34N 37°48' W 122°17'0 0.0
2017-Apr-21 08:20N 37°48' W 122°17'0 0.0
2017-Apr-21 07:51N 37°48' W 122°17'0 0.0
2017-Apr-21 07:30N 37°48' W 122°17'0 0.0
2017-Apr-21 07:00N 37°48' W 122°17'0 0.0
2017-Apr-21 06:28N 37°48' W 122°17'0 0.0
2017-Apr-21 06:00N 37°48' W 122°17'0 0.0
2017-Apr-21 05:25N 37°48' W 122°17'0 0.1
2017-Apr-21 04:56N 37°48' W 122°17'0 0.1
2017-Apr-21 04:22N 37°48' W 122°17'0 0.0
2017-Apr-21 03:58N 37°48' W 122°17'0 0.1
2017-Apr-21 03:30N 37°48' W 122°17'0 0.2
2017-Apr-21 02:58N 37°48' W 122°17'0 0.2
2017-Apr-21 02:30N 37°48' W 122°17'0 0.0
2017-Apr-20 23:25N 37°48' W 122°17'0 0.0
2017-Apr-20 23:00N 37°48' W 122°17'0 0.0
2017-Apr-20 18:41N 37°48' W 122°17'0 0.1
2017-Apr-20 18:30N 37°48' W 122°17'0 0.0
2017-Apr-20 17:00N 37°48' W 122°17'0 0.0
2017-Apr-20 16:27N 37°48' W 122°17'0 0.0
2017-Apr-20 15:23N 37°48' W 122°17'0 0.0
2017-Apr-20 15:01N 37°48' W 122°17'0 0.0
2017-Apr-20 14:30N 37°48' W 122°17'0 0.0
2017-Apr-20 06:12N 37°48' W 122°17'0 0.0
2017-Apr-20 04:42N 37°48' W 122°17'0 0.0
2017-Apr-20 04:24N 37°48' W 122°17'0 0.0
2017-Apr-20 04:00N 37°48' W 122°17'0 0.0
2017-Apr-20 03:24N 37°48' W 122°17'0 0.0
2017-Apr-20 02:57N 37°48' W 122°17'0 0.0
2017-Apr-20 02:30N 37°48' W 122°17'0 0.0
2017-Apr-19 19:09N 37°48' W 122°17'1 5.1
2017-Apr-19 19:00N 37°48' W 122°18'3 5.9
2017-Apr-19 18:29N 37°48' W 122°21'0 1.0
2017-Apr-19 18:00N 37°48' W 122°22'0 0.4
2017-Apr-19 17:30N 37°48' W 122°22'1 1.4
2017-Apr-19 17:01N 37°48' W 122°21'2 4.2
2017-Apr-19 16:30N 37°48' W 122°18'1 2.5
2017-Apr-19 15:58N 37°48' W 122°17'0 0.0
2017-Apr-19 15:29N 37°48' W 122°17'0 0.0
2017-Apr-19 15:00N 37°48' W 122°17'0 0.0
2017-Apr-19 14:30N 37°48' W 122°17'0 0.0
2017-Apr-19 13:24N 37°48' W 122°17'0 0.0
2017-Apr-19 13:00N 37°48' W 122°17'0 0.0
2017-Apr-19 12:28N 37°48' W 122°17'0 0.0
2017-Apr-19 11:57N 37°48' W 122°17'0 0.0
2017-Apr-19 11:24N 37°48' W 122°17'0 0.0
2017-Apr-19 11:00N 37°48' W 122°17'0 0.0
2017-Apr-19 10:29N 37°48' W 122°17'0 0.0
2017-Apr-19 09:56N 37°48' W 122°17'0 0.0
2017-Apr-19 09:20N 37°48' W 122°17'0 0.1
2017-Apr-19 09:00N 37°48' W 122°17'0 0.1
2017-Apr-19 08:28N 37°48' W 122°17'0 0.0
2017-Apr-19 07:59N 37°48' W 122°17'0 0.0
2017-Apr-19 07:29N 37°48' W 122°17'0 0.0
2017-Apr-19 06:59N 37°48' W 122°17'0 0.1
2017-Apr-19 06:30N 37°48' W 122°17'0 0.1
2017-Apr-19 06:00N 37°48' W 122°17'0 0.1
2017-Apr-19 05:27N 37°48' W 122°17'0 0.0
2017-Apr-19 04:55N 37°48' W 122°17'0 0.0
2017-Apr-19 04:28N 37°48' W 122°17'0 0.0
2017-Apr-19 04:00N 37°48' W 122°17'0 0.3
2017-Apr-19 03:31N 37°48' W 122°17'0 0.2
2017-Apr-19 02:59N 37°48' W 122°17'0 0.0
2017-Apr-19 02:30N 37°48' W 122°17'0 0.2
2017-Apr-19 01:58N 37°48' W 122°17'0 0.0
2017-Apr-19 01:28N 37°48' W 122°17'0 0.0
2017-Apr-19 00:58N 37°48' W 122°17'0 0.2
2017-Apr-19 00:30N 37°48' W 122°17'0 0.1
2017-Apr-18 23:36N 37°48' W 122°17'0 0.8
2017-Apr-18 23:29N 37°48' W 122°17'3 7.0
2017-Apr-18 23:01N 37°48' W 122°21'2 3.1
2017-Apr-18 22:24N 37°47' W 122°23'0 0.6
2017-Apr-18 21:59N 37°47' W 122°23'0 0.4
2017-Apr-18 21:22N 37°47' W 122°23'0 0.3
2017-Apr-18 21:00N 37°47' W 122°23'0 0.1
2017-Apr-18 20:28N 37°47' W 122°23'0 0.5
2017-Apr-18 20:00N 37°47' W 122°23'0 0.2
2017-Apr-18 18:46N 37°47' W 122°23'0 1.1
2017-Apr-18 18:30N 37°47' W 122°23'3 5.6
2017-Apr-18 18:00N 37°48' W 122°19'2 1.4
2017-Apr-18 16:29N 37°48' W 122°17'0 0.0
2017-Apr-18 16:00N 37°48' W 122°17'0 0.1
2017-Apr-18 14:58N 37°48' W 122°17'0 0.1
2017-Apr-18 13:58N 37°48' W 122°17'0 0.0
2017-Apr-18 13:14N 37°48' W 122°17'0 0.0
2017-Apr-18 13:00N 37°48' W 122°17'0 0.0
2017-Apr-18 12:29N 37°48' W 122°17'0 0.0
2017-Apr-18 11:38N 37°48' W 122°17'0 0.0
2017-Apr-18 11:29N 37°48' W 122°17'0 0.0
2017-Apr-18 11:00N 37°48' W 122°17'0 0.0
2017-Apr-18 10:26N 37°48' W 122°17'0 0.0
2017-Apr-18 09:57N 37°48' W 122°17'0 0.0
2017-Apr-18 09:26N 37°48' W 122°17'0 0.0
2017-Apr-18 07:20N 37°48' W 122°17'0 0.0
2017-Apr-18 06:33N 37°48' W 122°17'0 0.0
2017-Apr-18 06:18N 37°48' W 122°17'0 0.0
2017-Apr-18 05:55N 37°48' W 122°17'0 0.0
2017-Apr-18 05:20N 37°48' W 122°17'0 0.0
2017-Apr-18 04:57N 37°48' W 122°17'0 0.0
2017-Apr-18 04:24N 37°48' W 122°17'0 0.0
2017-Apr-18 03:14N 37°48' W 122°17'0 0.0
2017-Apr-18 02:59N 37°48' W 122°17'0 0.0
2017-Apr-18 02:20N 37°48' W 122°17'0 0.0
2017-Apr-17 21:21N 37°48' W 122°17'0 0.0
2017-Apr-17 21:00N 37°48' W 122°17'0 0.0
2017-Apr-17 20:29N 37°48' W 122°17'0 0.0
2017-Apr-17 13:02N 37°48' W 122°17'0 0.0
2017-Apr-17 11:03N 37°48' W 122°17'0 0.2
2017-Apr-17 10:59N 37°48' W 122°17'0 0.0
2017-Apr-17 10:12N 37°48' W 122°17'0 0.0
2017-Apr-17 09:54N 37°48' W 122°17'0 0.0
2017-Apr-17 03:58N 37°48' W 122°17'0 0.0
2017-Apr-17 03:25N 37°48' W 122°17'2 4.1
2017-Apr-17 03:00N 37°48' W 122°19'2 3.7
2017-Apr-17 02:30N 37°48' W 122°21'0 0.4
2017-Apr-17 02:01N 37°48' W 122°21'2 5.0
2017-Apr-17 01:31N 37°48' W 122°18'1 1.6
2017-Apr-17 00:55N 37°48' W 122°17'0 0.0
2017-Apr-17 00:11N 37°48' W 122°17'0 0.0
2017-Apr-16 23:54N 37°48' W 122°17'1 1.4
2017-Apr-16 23:30N 37°48' W 122°17'3 5.7
2017-Apr-16 23:01N 37°48' W 122°21'0 0.9
2017-Apr-16 22:29N 37°47' W 122°21'0 0.9
2017-Apr-16 21:58N 37°47' W 122°22'2 4.5
2017-Apr-16 21:31N 37°48' W 122°19'2 0.2
2017-Apr-16 13:52N 37°48' W 122°17'0 0.0
2017-Apr-16 13:24N 37°48' W 122°17'0 0.0
2017-Apr-16 12:59N 37°48' W 122°17'0 0.0
2017-Apr-16 12:28N 37°48' W 122°17'0 0.0
2017-Apr-16 11:52N 37°48' W 122°17'0 0.0
2017-Apr-16 11:19N 37°48' W 122°17'0 0.0
2017-Apr-16 10:58N 37°48' W 122°17'0 0.0
2017-Apr-16 10:26N 37°48' W 122°17'0 0.0
2017-Apr-16 09:44N 37°48' W 122°17'0 0.0
2017-Apr-16 09:25N 37°48' W 122°17'0 0.0
2017-Apr-16 08:54N 37°48' W 122°17'0 0.0
2017-Apr-16 08:09N 37°48' W 122°17'0 0.0
2017-Apr-16 07:54N 37°48' W 122°17'0 0.0
2017-Apr-16 07:09N 37°48' W 122°17'0 0.0
2017-Apr-16 07:00N 37°48' W 122°17'0 0.0
2017-Apr-16 06:28N 37°48' W 122°17'0 0.0
2017-Apr-16 05:58N 37°48' W 122°17'  
Track history (hours):
 
Tides and Currents Weather Stations Pressure Air Temp Water Temp Dewpoint Dewpoint Depression Visibility Wind Speed Wind Dir Waves Ship Positions

Hawaiian Chieftain (United States)

Operated briefly as "Spirt of Larinda". When she sailed from Sausalito, California, callsign was WAA7737.

Ship's website: http://www.historicalseaport.org/HawaiianChieftain.htm

Owner: GRAYS HARBOR HISTORICAL SEAPORT AUTHORITY, ABERDEEN, WA. More information available from US FCC via Universal Licensing System and Coast Guard Vessel Documentation Center.

Last reported at 2017-Apr-26 05:43 UTC. Time now 2017-May-23 04:56 UTC.
Position N 38°25' W 123°18'.
Warning: this ship's position is 26 days out of date.

Length 31 m.

Type: Sailing vessel. MMSI: 367092520.

Date/timePositionNaut miles runAvg speedWind from/ knotsBaromVisibWave heightAir tempDewpointWater temp
2017-Apr-26 05:43N 38°25' W 123°18'1 6.9
2017-Apr-26 05:30N 38°24' W 123°16'4 7.0
2017-Apr-26 05:00N 38°21' W 123°15'3 6.8
2017-Apr-26 04:30N 38°18' W 123°13'3 6.4
2017-Apr-26 04:00N 38°15' W 123°12'4 7.0
2017-Apr-26 03:27N 38°11' W 123°10'12 6.4
2017-Apr-26 01:34N 37°59' W 123°06'1 7.1
2017-Apr-26 01:27N 37°59' W 123°05'3 6.6
2017-Apr-26 00:56N 37°56' W 123°03'27 6.7
2017-Apr-25 20:56N 37°49' W 122°30'5 8.8
2017-Apr-25 20:22N 37°50' W 122°24'3 8.8
2017-Apr-25 20:00N 37°48' W 122°21'3 0.2
2017-Apr-25 02:26N 37°48' W 122°17'0 0.0
2017-Apr-25 01:52N 37°48' W 122°17'0 0.0
2017-Apr-25 00:37N 37°48' W 122°17'0 0.0
2017-Apr-24 20:01N 37°48' W 122°17'0 0.0
2017-Apr-24 19:50N 37°48' W 122°17'0 0.0
2017-Apr-24 19:28N 37°48' W 122°17'0 0.2
2017-Apr-24 19:00N 37°48' W 122°17'0 0.1
2017-Apr-24 18:18N 37°48' W 122°17'0 0.0
2017-Apr-24 18:00N 37°48' W 122°17'0 0.1
2017-Apr-24 17:30N 37°48' W 122°17'0 0.1
2017-Apr-24 17:00N 37°47' W 122°17'0 0.0
2017-Apr-24 06:45N 37°48' W 122°17'0 0.0
2017-Apr-24 06:21N 37°48' W 122°17'0 0.0
2017-Apr-24 00:27N 37°48' W 122°17'0 0.0
2017-Apr-23 23:55N 37°48' W 122°17'0 0.2
2017-Apr-23 23:30N 37°48' W 122°17'0 0.5
2017-Apr-23 23:00N 37°48' W 122°17'4 7.9
2017-Apr-23 22:30N 37°48' W 122°22'3 5.0
2017-Apr-23 21:57N 37°49' W 122°25'2 4.1
2017-Apr-23 21:30N 37°48' W 122°23'3 6.3
2017-Apr-23 21:00N 37°48' W 122°19'2 1.6
2017-Apr-23 19:45N 37°48' W 122°17'1 5.5
2017-Apr-23 19:30N 37°48' W 122°18'4 7.7
2017-Apr-23 18:58N 37°49' W 122°23'3 6.5
2017-Apr-23 18:29N 37°50' W 122°27'1 2.4
2017-Apr-23 17:59N 37°51' W 122°28'2 3.6
2017-Apr-23 17:25N 37°50' W 122°26'3 6.7
2017-Apr-23 17:00N 37°49' W 122°23'3 6.6
2017-Apr-23 16:30N 37°48' W 122°19'2 3.2
2017-Apr-23 16:00N 37°48' W 122°17'0 0.0
2017-Apr-23 14:59N 37°48' W 122°17'0 0.0
2017-Apr-23 14:22N 37°48' W 122°17'0 0.0
2017-Apr-23 13:10N 37°48' W 122°17'0 0.0
2017-Apr-23 12:58N 37°48' W 122°17'0 0.0
2017-Apr-23 12:30N 37°48' W 122°17'0 0.0
2017-Apr-23 11:56N 37°48' W 122°17'0 0.0
2017-Apr-23 10:57N 37°48' W 122°17'0 0.0
2017-Apr-23 08:45N 37°48' W 122°17'0 0.0
2017-Apr-23 08:20N 37°48' W 122°17'0 0.0
2017-Apr-23 07:47N 37°48' W 122°17'0 0.0
2017-Apr-23 07:22N 37°48' W 122°17'0 0.0
2017-Apr-23 06:52N 37°48' W 122°17'0 0.0
2017-Apr-23 06:15N 37°48' W 122°17'0 0.0
2017-Apr-23 05:49N 37°48' W 122°17'0 0.1
2017-Apr-23 04:50N 37°48' W 122°17'0 0.1
2017-Apr-23 04:24N 37°48' W 122°17'0 0.0
2017-Apr-23 03:28N 37°48' W 122°17'0 0.0
2017-Apr-23 02:57N 37°48' W 122°17'0 0.0
2017-Apr-23 02:28N 37°48' W 122°17'0 0.0
2017-Apr-23 01:48N 37°48' W 122°17'0 0.0
2017-Apr-23 00:59N 37°48' W 122°17'0 0.0
2017-Apr-23 00:26N 37°48' W 122°17'0 0.0
2017-Apr-22 23:56N 37°48' W 122°17'2 4.9
2017-Apr-22 23:28N 37°48' W 122°20'1 1.1
2017-Apr-22 22:46N 37°48' W 122°21'0 0.7
2017-Apr-22 22:29N 37°48' W 122°21'0 0.7
2017-Apr-22 21:58N 37°48' W 122°21'2 4.1
2017-Apr-22 21:30N 37°48' W 122°18'1 1.7
2017-Apr-22 20:39N 37°48' W 122°17'0 0.0
2017-Apr-22 20:15N 37°48' W 122°17'0 0.0
2017-Apr-22 19:28N 37°48' W 122°17'0 0.0
2017-Apr-22 18:54N 37°48' W 122°17'0 0.0
2017-Apr-22 18:30N 37°48' W 122°17'0 0.0
2017-Apr-22 17:58N 37°48' W 122°17'0 0.0
2017-Apr-22 17:28N 37°48' W 122°17'0 0.0
2017-Apr-22 16:55N 37°48' W 122°17'0 0.0
2017-Apr-22 16:24N 37°48' W 122°17'0 0.0
2017-Apr-22 16:00N 37°48' W 122°17'0 0.0
2017-Apr-22 15:27N 37°48' W 122°17'0 0.0
2017-Apr-22 14:58N 37°48' W 122°17'0 0.0
2017-Apr-22 14:30N 37°48' W 122°17'0 0.0
2017-Apr-22 13:30N 37°48' W 122°17'0 0.0
2017-Apr-22 13:00N 37°48' W 122°17'0 0.0
2017-Apr-22 12:29N 37°48' W 122°17'0 0.0
2017-Apr-22 11:51N 37°48' W 122°17'0 0.0
2017-Apr-22 11:27N 37°48' W 122°17'0 0.0
2017-Apr-22 11:00N 37°48' W 122°17'0 0.0
2017-Apr-22 10:28N 37°48' W 122°17'0 0.0
2017-Apr-22 09:57N 37°48' W 122°17'0 0.0
2017-Apr-22 08:50N 37°48' W 122°17'0 0.0
2017-Apr-22 08:26N 37°48' W 122°17'0 0.0
2017-Apr-22 07:52N 37°48' W 122°17'0 0.0
2017-Apr-22 07:03N 37°48' W 122°17'0 0.1
2017-Apr-22 06:59N 37°48' W 122°17'0 0.0
2017-Apr-22 06:29N 37°48' W 122°17'0 0.0
2017-Apr-22 06:00N 37°48' W 122°17'0 0.0
2017-Apr-22 05:30N 37°48' W 122°17'0 0.0
2017-Apr-22 04:57N 37°48' W 122°17'0 0.0
2017-Apr-22 04:17N 37°48' W 122°17'0 0.0
2017-Apr-22 03:55N 37°48' W 122°17'0 0.0
2017-Apr-22 03:25N 37°48' W 122°17'0 0.0
2017-Apr-22 02:55N 37°48' W 122°17'0 0.0
2017-Apr-22 01:21N 37°48' W 122°17'0 0.0
2017-Apr-22 00:57N 37°48' W 122°17'0 0.0
2017-Apr-22 00:27N 37°48' W 122°17'0 0.0
2017-Apr-21 23:51N 37°48' W 122°17'2 5.3
2017-Apr-21 23:30N 37°48' W 122°19'3 4.0
2017-Apr-21 22:40N 37°47' W 122°23'0 0.2
2017-Apr-21 22:23N 37°47' W 122°23'1 3.0
2017-Apr-21 22:01N 37°48' W 122°22'1 1.4
2017-Apr-21 21:29N 37°47' W 122°21'1 1.3
2017-Apr-21 21:01N 37°48' W 122°21'1 1.6
2017-Apr-21 20:31N 37°48' W 122°22'1 0.8
2017-Apr-21 18:53N 37°47' W 122°23'0 0.9
2017-Apr-21 18:29N 37°47' W 122°23'0 0.9
2017-Apr-21 18:01N 37°47' W 122°22'1 1.1
2017-Apr-21 17:30N 37°47' W 122°22'1 1.1
2017-Apr-21 16:55N 37°47' W 122°22'1 1.5
2017-Apr-21 16:30N 37°47' W 122°23'0 0.1
2017-Apr-21 16:01N 37°47' W 122°23'0 0.1
2017-Apr-21 15:28N 37°47' W 122°23'3 6.0
2017-Apr-21 15:00N 37°48' W 122°20'2 4.2
2017-Apr-21 14:25N 37°48' W 122°17'0 0.0
2017-Apr-21 13:28N 37°48' W 122°17'0 0.0
2017-Apr-21 12:51N 37°48' W 122°17'0 0.0
2017-Apr-21 12:14N 37°48' W 122°17'0 0.0
2017-Apr-21 11:58N 37°48' W 122°17'0 0.0
2017-Apr-21 11:30N 37°48' W 122°17'0 0.0
2017-Apr-21 10:47N 37°48' W 122°17'0 0.0
2017-Apr-21 10:25N 37°48' W 122°17'0 0.0
2017-Apr-21 08:34N 37°48' W 122°17'0 0.0
2017-Apr-21 08:20N 37°48' W 122°17'0 0.0
2017-Apr-21 07:51N 37°48' W 122°17'0 0.0
2017-Apr-21 07:30N 37°48' W 122°17'0 0.0
2017-Apr-21 07:00N 37°48' W 122°17'0 0.0
2017-Apr-21 06:28N 37°48' W 122°17'0 0.0
2017-Apr-21 06:00N 37°48' W 122°17'0 0.0
2017-Apr-21 05:25N 37°48' W 122°17'0 0.1
2017-Apr-21 04:56N 37°48' W 122°17'0 0.1
2017-Apr-21 04:22N 37°48' W 122°17'0 0.0
2017-Apr-21 03:58N 37°48' W 122°17'0 0.1
2017-Apr-21 03:30N 37°48' W 122°17'0 0.2
2017-Apr-21 02:58N 37°48' W 122°17'0 0.2
2017-Apr-21 02:30N 37°48' W 122°17'0 0.0
2017-Apr-20 23:25N 37°48' W 122°17'0 0.0
2017-Apr-20 23:00N 37°48' W 122°17'0 0.0
2017-Apr-20 18:41N 37°48' W 122°17'0 0.1
2017-Apr-20 18:30N 37°48' W 122°17'0 0.0
2017-Apr-20 17:00N 37°48' W 122°17'0 0.0
2017-Apr-20 16:27N 37°48' W 122°17'0 0.0
2017-Apr-20 15:23N 37°48' W 122°17'0 0.0
2017-Apr-20 15:01N 37°48' W 122°17'0 0.0
2017-Apr-20 14:30N 37°48' W 122°17'0 0.0
2017-Apr-20 06:12N 37°48' W 122°17'0 0.0
2017-Apr-20 04:42N 37°48' W 122°17'0 0.0
2017-Apr-20 04:24N 37°48' W 122°17'0 0.0
2017-Apr-20 04:00N 37°48' W 122°17'0 0.0
2017-Apr-20 03:24N 37°48' W 122°17'0 0.0
2017-Apr-20 02:57N 37°48' W 122°17'0 0.0
2017-Apr-20 02:30N 37°48' W 122°17'0 0.0
2017-Apr-19 19:09N 37°48' W 122°17'1 5.1
2017-Apr-19 19:00N 37°48' W 122°18'3 5.9
2017-Apr-19 18:29N 37°48' W 122°21'0 1.0
2017-Apr-19 18:00N 37°48' W 122°22'0 0.4
2017-Apr-19 17:30N 37°48' W 122°22'1 1.4
2017-Apr-19 17:01N 37°48' W 122°21'2 4.2
2017-Apr-19 16:30N 37°48' W 122°18'1 2.5
2017-Apr-19 15:58N 37°48' W 122°17'0 0.0
2017-Apr-19 15:29N 37°48' W 122°17'0 0.0
2017-Apr-19 15:00N 37°48' W 122°17'0 0.0
2017-Apr-19 14:30N 37°48' W 122°17'0 0.0
2017-Apr-19 13:24N 37°48' W 122°17'0 0.0
2017-Apr-19 13:00N 37°48' W 122°17'0 0.0
2017-Apr-19 12:28N 37°48' W 122°17'0 0.0
2017-Apr-19 11:57N 37°48' W 122°17'0 0.0
2017-Apr-19 11:24N 37°48' W 122°17'0 0.0
2017-Apr-19 11:00N 37°48' W 122°17'0 0.0
2017-Apr-19 10:29N 37°48' W 122°17'0 0.0
2017-Apr-19 09:56N 37°48' W 122°17'0 0.0
2017-Apr-19 09:20N 37°48' W 122°17'0 0.1
2017-Apr-19 09:00N 37°48' W 122°17'0 0.1
2017-Apr-19 08:28N 37°48' W 122°17'0 0.0
2017-Apr-19 07:59N 37°48' W 122°17'0 0.0
2017-Apr-19 07:29N 37°48' W 122°17'0 0.0
2017-Apr-19 06:59N 37°48' W 122°17'0 0.1
2017-Apr-19 06:30N 37°48' W 122°17'0 0.1
2017-Apr-19 06:00N 37°48' W 122°17'0 0.1
2017-Apr-19 05:27N 37°48' W 122°17'0 0.0
2017-Apr-19 04:55N 37°48' W 122°17'0 0.0
2017-Apr-19 04:28N 37°48' W 122°17'0 0.0
2017-Apr-19 04:00N 37°48' W 122°17'0 0.3
2017-Apr-19 03:31N 37°48' W 122°17'0 0.2
2017-Apr-19 02:59N 37°48' W 122°17'0 0.0
2017-Apr-19 02:30N 37°48' W 122°17'0 0.2
2017-Apr-19 01:58N 37°48' W 122°17'0 0.0
2017-Apr-19 01:28N 37°48' W 122°17'0 0.0
2017-Apr-19 00:58N 37°48' W 122°17'0 0.2
2017-Apr-19 00:30N 37°48' W 122°17'0 0.1
2017-Apr-18 23:36N 37°48' W 122°17'0 0.8
2017-Apr-18 23:29N 37°48' W 122°17'3 7.0
2017-Apr-18 23:01N 37°48' W 122°21'2 3.1
2017-Apr-18 22:24N 37°47' W 122°23'0 0.6
2017-Apr-18 21:59N 37°47' W 122°23'0 0.4
2017-Apr-18 21:22N 37°47' W 122°23'0 0.3
2017-Apr-18 21:00N 37°47' W 122°23'0 0.1
2017-Apr-18 20:28N 37°47' W 122°23'0 0.5
2017-Apr-18 20:00N 37°47' W 122°23'0 0.2
2017-Apr-18 18:46N 37°47' W 122°23'0 1.1
2017-Apr-18 18:30N 37°47' W 122°23'3 5.6
2017-Apr-18 18:00N 37°48' W 122°19'2 1.4
2017-Apr-18 16:29N 37°48' W 122°17'0 0.0
2017-Apr-18 16:00N 37°48' W 122°17'0 0.1
2017-Apr-18 14:58N 37°48' W 122°17'0 0.1
2017-Apr-18 13:58N 37°48' W 122°17'0 0.0
2017-Apr-18 13:14N 37°48' W 122°17'0 0.0
2017-Apr-18 13:00N 37°48' W 122°17'0 0.0
2017-Apr-18 12:29N 37°48' W 122°17'0 0.0
2017-Apr-18 11:38N 37°48' W 122°17'0 0.0
2017-Apr-18 11:29N 37°48' W 122°17'0 0.0
2017-Apr-18 11:00N 37°48' W 122°17'0 0.0
2017-Apr-18 10:26N 37°48' W 122°17'0 0.0
2017-Apr-18 09:57N 37°48' W 122°17'0 0.0
2017-Apr-18 09:26N 37°48' W 122°17'0 0.0
2017-Apr-18 07:20N 37°48' W 122°17'0 0.0
2017-Apr-18 06:33N 37°48' W 122°17'0 0.0
2017-Apr-18 06:18N 37°48' W 122°17'0 0.0
2017-Apr-18 05:55N 37°48' W 122°17'0 0.0
2017-Apr-18 05:20N 37°48' W 122°17'0 0.0
2017-Apr-18 04:57N 37°48' W 122°17'0 0.0
2017-Apr-18 04:24N 37°48' W 122°17'0 0.0
2017-Apr-18 03:14N 37°48' W 122°17'0 0.0
2017-Apr-18 02:59N 37°48' W 122°17'0 0.0
2017-Apr-18 02:20N 37°48' W 122°17'0 0.0
2017-Apr-17 21:21N 37°48' W 122°17'0 0.0
2017-Apr-17 21:00N 37°48' W 122°17'0 0.0
2017-Apr-17 20:29N 37°48' W 122°17'0 0.0
2017-Apr-17 13:02N 37°48' W 122°17'0 0.0
2017-Apr-17 11:03N 37°48' W 122°17'0 0.2
2017-Apr-17 10:59N 37°48' W 122°17'0 0.0
2017-Apr-17 10:12N 37°48' W 122°17'0 0.0
2017-Apr-17 09:54N 37°48' W 122°17'0 0.0
2017-Apr-17 03:58N 37°48' W 122°17'0 0.0
2017-Apr-17 03:25N 37°48' W 122°17'2 4.1
2017-Apr-17 03:00N 37°48' W 122°19'2 3.7
2017-Apr-17 02:30N 37°48' W 122°21'0 0.4
2017-Apr-17 02:01N 37°48' W 122°21'2 5.0
2017-Apr-17 01:31N 37°48' W 122°18'1 1.6
2017-Apr-17 00:55N 37°48' W 122°17'0 0.0
2017-Apr-17 00:11N 37°48' W 122°17'0 0.0
2017-Apr-16 23:54N 37°48' W 122°17'1 1.4
2017-Apr-16 23:30N 37°48' W 122°17'3 5.7
2017-Apr-16 23:01N 37°48' W 122°21'0 0.9
2017-Apr-16 22:29N 37°47' W 122°21'0 0.9
2017-Apr-16 21:58N 37°47' W 122°22'2 4.5
2017-Apr-16 21:31N 37°48' W 122°19'2 0.2
2017-Apr-16 13:52N 37°48' W 122°17'0 0.0
2017-Apr-16 13:24N 37°48' W 122°17'0 0.0
2017-Apr-16 12:59N 37°48' W 122°17'0 0.0
2017-Apr-16 12:28N 37°48' W 122°17'0 0.0
2017-Apr-16 11:52N 37°48' W 122°17'0 0.0
2017-Apr-16 11:19N 37°48' W 122°17'0 0.0
2017-Apr-16 10:58N 37°48' W 122°17'0 0.0
2017-Apr-16 10:26N 37°48' W 122°17'0 0.0
2017-Apr-16 09:44N 37°48' W 122°17'0 0.0
2017-Apr-16 09:25N 37°48' W 122°17'0 0.0
2017-Apr-16 08:54N 37°48' W 122°17'0 0.0
2017-Apr-16 08:09N 37°48' W 122°17'0 0.0
2017-Apr-16 07:54N 37°48' W 122°17'0 0.0
2017-Apr-16 07:09N 37°48' W 122°17'0 0.0
2017-Apr-16 07:00N 37°48' W 122°17'0 0.0
2017-Apr-16 06:28N 37°48' W 122°17'0 0.0
2017-Apr-16 05:58N 37°48' W 122°17'  

Dump ship's entire track history